createdAt,value
2023-01-29T00:05:13.032Z,76.60
2023-01-29T00:10:23.069Z,77.21
2023-01-29T00:15:24.502Z,77.12
2023-01-29T00:20:25.929Z,77.09
2023-01-29T00:25:27.368Z,77.10
2023-01-29T00:30:28.791Z,75.88
2023-01-29T00:35:30.543Z,76.09
2023-01-29T00:40:52.131Z,77.24
2023-01-29T00:45:53.511Z,76.91
2023-01-29T00:50:54.957Z,77.25
2023-01-29T00:55:56.459Z,77.45
2023-01-29T01:00:57.939Z,75.66
2023-01-29T01:06:04.671Z,76.11
2023-01-29T01:11:07.068Z,76.93
2023-01-29T01:16:12.885Z,77.55
2023-01-29T01:21:14.386Z,76.61
2023-01-29T01:26:15.801Z,75.43
2023-01-29T01:31:17.324Z,75.91
2023-01-29T01:36:18.858Z,74.07
2023-01-29T01:41:21.872Z,76.81
2023-01-29T01:46:25.263Z,77.04
2023-01-29T01:51:28.883Z,76.07
2023-01-29T01:56:40.524Z,77.26
2023-01-29T02:01:50.014Z,76.87
2023-01-29T02:07:12.557Z,78.08
2023-01-29T02:12:15.953Z,77.00
2023-01-29T02:17:19.435Z,77.00
2023-01-29T02:22:28.271Z,77.30
2023-01-29T02:27:48.700Z,77.96
2023-01-29T02:33:07.602Z,78.61
2023-01-29T02:38:34.419Z,76.23
2023-01-29T02:43:38.835Z,76.75
2023-01-29T02:48:54.015Z,77.23
2023-01-29T02:54:04.119Z,76.74
2023-01-29T02:59:14.661Z,75.78
2023-01-29T03:04:24.682Z,76.59
2023-01-29T03:09:36.414Z,77.32
2023-01-29T03:14:58.636Z,78.34
2023-01-29T03:20:02.073Z,77.30
2023-01-29T03:25:24.438Z,77.13
2023-01-29T03:30:48.071Z,76.88
2023-01-29T03:36:08.815Z,77.42
2023-01-29T03:41:25.796Z,77.36
2023-01-29T03:46:32.086Z,77.11
2023-01-29T03:52:00.537Z,77.89
2023-01-29T03:57:12.418Z,77.88
2023-01-29T04:02:31.550Z,77.38
2023-01-29T04:07:37.996Z,77.48
2023-01-29T04:12:48.164Z,77.62
2023-01-29T04:17:52.689Z,77.01
2023-01-29T04:23:06.655Z,77.77
2023-01-29T04:28:25.948Z,77.90
2023-01-29T04:33:38.201Z,78.01
2023-01-29T04:39:20.042Z,77.92
2023-01-29T04:44:53.572Z,78.29
2023-01-29T04:50:03.764Z,77.42
2023-01-29T04:55:18.190Z,77.98
2023-01-29T05:00:27.635Z,78.29
2023-01-29T05:05:30.615Z,78.56
2023-01-29T05:10:33.973Z,78.62
2023-01-29T05:15:40.238Z,78.34
2023-01-29T05:20:43.562Z,77.78
2023-01-29T05:25:46.738Z,79.01
2023-01-29T05:30:51.145Z,78.15
2023-01-29T05:35:53.204Z,76.69
2023-01-29T05:40:55.058Z,77.13
2023-01-29T05:45:59.004Z,77.50
2023-01-29T05:51:01.948Z,77.25
2023-01-29T05:56:04.196Z,76.96
2023-01-29T06:01:16.844Z,76.44
2023-01-29T06:06:18.335Z,77.18
2023-01-29T06:11:20.563Z,76.31
2023-01-29T06:16:22.199Z,77.47
2023-01-29T06:21:23.663Z,76.46
2023-01-29T06:26:25.085Z,76.53
2023-01-29T06:31:38.199Z,77.76
2023-01-29T06:36:41.762Z,76.81
2023-01-29T06:41:43.314Z,77.52
2023-01-29T06:46:44.814Z,76.64
2023-01-29T06:51:47.004Z,76.07
2023-01-29T06:56:48.709Z,76.67
2023-01-29T07:01:50.215Z,76.59
2023-01-29T07:06:51.730Z,77.06
2023-01-29T07:11:53.182Z,76.60
2023-01-29T07:16:54.595Z,77.00
2023-01-29T07:21:56.083Z,76.19
2023-01-29T07:26:57.616Z,76.05
2023-01-29T07:31:59.147Z,75.47
2023-01-29T07:37:00.664Z,77.04
2023-01-29T07:42:02.460Z,76.62
2023-01-29T07:47:03.904Z,78.17
2023-01-29T07:52:05.417Z,78.63
2023-01-29T07:57:06.836Z,76.54
2023-01-29T08:02:09.431Z,77.84
2023-01-29T08:07:10.847Z,77.45
2023-01-29T08:12:12.289Z,76.26
2023-01-29T08:17:14.365Z,76.87
2023-01-29T08:22:16.540Z,76.65
2023-01-29T08:27:18.354Z,76.56
2023-01-29T08:32:19.800Z,76.83
2023-01-29T08:37:21.292Z,76.50
2023-01-29T08:42:22.746Z,76.87
2023-01-29T08:47:24.207Z,76.73
2023-01-29T08:52:25.632Z,76.05
2023-01-29T08:57:28.410Z,76.00
2023-01-29T09:02:29.907Z,77.28
2023-01-29T09:07:31.391Z,77.04
2023-01-29T09:12:33.995Z,76.10
2023-01-29T09:17:35.339Z,76.97
2023-01-29T09:22:36.838Z,75.63
2023-01-29T09:27:38.367Z,75.44
2023-01-29T09:32:53.163Z,76.01
2023-01-29T09:37:55.544Z,76.63
2023-01-29T09:43:07.819Z,75.74
2023-01-29T09:48:12.048Z,76.58
2023-01-29T09:53:45.929Z,75.28
2023-01-29T09:58:47.730Z,76.47
2023-01-29T10:04:29.804Z,77.04
2023-01-29T10:09:55.452Z,75.19
2023-01-29T10:15:30.665Z,75.89
2023-01-29T10:21:17.176Z,75.59
2023-01-29T10:26:23.349Z,75.52
2023-01-29T10:31:32.553Z,75.59
2023-01-29T10:36:46.400Z,75.29
2023-01-29T10:42:21.910Z,75.77
2023-01-29T10:47:54.296Z,76.51
2023-01-29T10:53:10.996Z,77.14
2023-01-29T10:58:30.405Z,77.75
2023-01-29T11:03:33.453Z,75.57
2023-01-29T11:08:41.731Z,75.32
2023-01-29T11:13:45.799Z,76.22
2023-01-29T11:18:59.410Z,75.92
2023-01-29T11:24:12.690Z,76.09
2023-01-29T11:29:52.785Z,76.35
2023-01-29T11:35:03.600Z,75.78
2023-01-29T11:40:20.618Z,76.82
2023-01-29T11:45:32.216Z,77.53
2023-01-29T11:50:33.883Z,76.00
2023-01-29T11:55:49.689Z,77.70
2023-01-29T12:00:55.265Z,76.84
2023-01-29T12:06:01.141Z,77.39
2023-01-29T12:11:15.165Z,76.70
2023-01-29T12:16:28.211Z,78.47
2023-01-29T12:22:22.277Z,76.96
2023-01-29T12:27:34.197Z,75.42
2023-01-29T12:32:43.037Z,75.81
2023-01-29T12:38:32.246Z,76.83
2023-01-29T12:43:43.777Z,75.35
2023-01-29T12:48:46.566Z,77.06
2023-01-29T12:53:56.836Z,75.66
2023-01-29T12:59:01.631Z,76.11
2023-01-29T13:04:20.517Z,76.12
2023-01-29T13:09:33.288Z,75.86
2023-01-29T13:14:49.205Z,75.10
2023-01-29T13:19:53.742Z,76.36
2023-01-29T13:25:04.679Z,76.06
2023-01-29T13:30:08.003Z,75.45
2023-01-29T13:35:13.998Z,76.74
2023-01-29T13:40:25.787Z,76.38
2023-01-29T13:45:43.549Z,75.42
2023-01-29T13:50:46.581Z,75.43
2023-01-29T13:55:48.354Z,76.70
2023-01-29T14:00:50.794Z,75.69
2023-01-29T14:05:55.257Z,74.90
2023-01-29T14:11:15.357Z,76.76
2023-01-29T14:16:16.760Z,75.42
2023-01-29T14:21:35.693Z,75.07
2023-01-29T14:26:43.725Z,74.24
2023-01-29T14:31:52.072Z,78.17
2023-01-29T14:36:57.392Z,77.31
2023-01-29T14:41:59.797Z,77.08
2023-01-29T14:47:01.128Z,76.41
2023-01-29T14:52:02.909Z,76.33
2023-01-29T14:57:10.697Z,77.11
2023-01-29T15:02:33.709Z,75.15
2023-01-29T15:07:39.510Z,76.24
2023-01-29T15:12:50.530Z,75.79
2023-01-29T15:18:10.661Z,74.99
2023-01-29T15:23:43.185Z,76.08
2023-01-29T15:28:54.833Z,77.25
2023-01-29T15:34:06.119Z,75.81
2023-01-29T15:39:22.589Z,76.15
2023-01-29T15:44:24.416Z,76.46
2023-01-29T15:49:32.782Z,76.28
2023-01-29T15:54:35.679Z,76.46
2023-01-29T15:59:44.096Z,77.03
2023-01-29T16:04:46.262Z,76.42
2023-01-29T16:09:48.133Z,76.94
2023-01-29T16:14:50.466Z,76.78
2023-01-29T16:20:05.153Z,75.90
2023-01-29T16:25:14.767Z,75.98
2023-01-29T16:30:17.267Z,76.65
2023-01-29T16:35:19.187Z,75.62
2023-01-29T16:40:33.949Z,75.92
2023-01-29T16:45:35.415Z,75.70
2023-01-29T16:50:54.047Z,75.27
2023-01-29T16:56:02.627Z,75.54
2023-01-29T17:01:07.332Z,75.80
2023-01-29T17:06:10.794Z,75.79
2023-01-29T17:11:22.977Z,75.35
2023-01-29T17:16:35.029Z,75.24
2023-01-29T17:21:36.502Z,76.18
2023-01-29T17:26:38.863Z,75.49
2023-01-29T17:31:40.593Z,75.16
2023-01-29T17:36:42.763Z,74.00
2023-01-29T17:41:47.605Z,73.63
2023-01-29T17:46:49.724Z,74.92
2023-01-29T17:51:52.336Z,74.16
2023-01-29T17:56:54.432Z,74.34
2023-01-29T18:01:55.897Z,73.74
2023-01-29T18:06:57.895Z,74.46
2023-01-29T18:11:59.337Z,74.49
2023-01-29T18:17:00.767Z,74.26
2023-01-29T18:22:02.177Z,74.28
2023-01-29T18:27:03.653Z,73.60
2023-01-29T18:32:05.538Z,74.04
2023-01-29T18:37:06.983Z,73.91
2023-01-29T18:42:08.399Z,74.27
2023-01-29T18:47:09.953Z,74.12
2023-01-29T18:52:11.381Z,74.50
2023-01-29T18:57:15.305Z,74.32
2023-01-29T19:02:34.773Z,74.60
2023-01-29T19:07:36.667Z,73.31
2023-01-29T19:12:42.128Z,74.14
2023-01-29T19:17:43.553Z,73.92
2023-01-29T19:22:44.967Z,74.11
2023-01-29T19:27:46.422Z,74.53
2023-01-29T19:32:47.852Z,74.43
2023-01-29T19:37:49.333Z,74.38
2023-01-29T19:42:55.021Z,74.63
2023-01-29T19:47:56.598Z,74.63
2023-01-29T19:52:59.228Z,74.69
2023-01-29T19:58:00.715Z,75.77
2023-01-29T20:03:02.228Z,74.76
2023-01-29T20:08:03.654Z,74.54
2023-01-29T20:13:05.961Z,75.48
2023-01-29T20:18:13.002Z,74.92
2023-01-29T20:23:25.010Z,74.05
2023-01-29T20:28:37.323Z,76.09
2023-01-29T20:33:39.601Z,75.95
2023-01-29T20:38:41.181Z,75.91
2023-01-29T20:43:43.810Z,75.41
2023-01-29T20:48:45.144Z,75.70
2023-01-29T20:53:47.936Z,74.77
2023-01-29T20:58:49.510Z,74.60
2023-01-29T21:03:50.956Z,75.15
2023-01-29T21:08:52.380Z,74.88
2023-01-29T21:13:57.512Z,74.59
2023-01-29T21:18:59.051Z,73.64
2023-01-29T21:24:00.508Z,74.15
2023-01-29T21:29:01.914Z,74.06
2023-01-29T21:34:04.721Z,73.61
2023-01-29T21:39:16.498Z,74.33
2023-01-29T21:44:18.036Z,73.38
2023-01-29T21:49:19.472Z,73.34
2023-01-29T21:54:20.895Z,73.26
2023-01-29T21:59:22.307Z,72.20
2023-01-29T22:04:23.729Z,72.76
2023-01-29T22:09:25.153Z,72.50
2023-01-29T22:14:26.773Z,72.78
2023-01-29T22:19:29.357Z,73.70
2023-01-29T22:24:30.704Z,72.50
2023-01-29T22:29:32.107Z,72.69
2023-01-29T22:34:34.126Z,73.63
2023-01-29T22:39:35.534Z,73.92
2023-01-29T22:44:36.959Z,73.48
2023-01-29T22:49:38.379Z,73.18
2023-01-29T22:54:42.856Z,73.01
2023-01-29T22:59:44.287Z,72.77
2023-01-29T23:04:45.769Z,73.49
2023-01-29T23:09:47.196Z,73.19
2023-01-29T23:14:48.634Z,73.97
2023-01-29T23:19:50.172Z,73.66
2023-01-29T23:24:51.749Z,73.60
2023-01-29T23:29:53.170Z,73.75
2023-01-29T23:34:54.607Z,73.60
2023-01-29T23:39:56.082Z,72.92
2023-01-29T23:44:57.517Z,73.61
2023-01-29T23:49:58.939Z,73.95
2023-01-29T23:55:00.372Z,73.70
